sensor_id;sensor_type;location;lat;lon;timestamp;temperature;humidity
33831;DHT22;20137;48.834;8.732;2023-08-17T00:00:20;18.00;99.90
33831;DHT22;20137;48.834;8.732;2023-08-17T00:02:46;18.00;99.90
33831;DHT22;20137;48.834;8.732;2023-08-17T00:05:11;18.00;99.90
33831;DHT22;20137;48.834;8.732;2023-08-17T00:07:37;18.00;99.90
33831;DHT22;20137;48.834;8.732;2023-08-17T00:10:04;18.00;99.90
33831;DHT22;20137;48.834;8.732;2023-08-17T00:12:30;17.90;99.90
33831;DHT22;20137;48.834;8.732;2023-08-17T00:14:56;17.80;99.90
33831;DHT22;20137;48.834;8.732;2023-08-17T00:17:22;17.80;99.90
33831;DHT22;20137;48.834;8.732;2023-08-17T00:20:43;17.80;99.90
33831;DHT22;20137;48.834;8.732;2023-08-17T00:23:10;17.70;99.90
33831;DHT22;20137;48.834;8.732;2023-08-17T00:25:35;17.70;99.90
33831;DHT22;20137;48.834;8.732;2023-08-17T00:28:01;17.70;99.90
33831;DHT22;20137;48.834;8.732;2023-08-17T00:30:27;17.70;99.90
33831;DHT22;20137;48.834;8.732;2023-08-17T00:32:53;17.70;99.90
33831;DHT22;20137;48.834;8.732;2023-08-17T00:35:23;17.70;99.90
33831;DHT22;20137;48.834;8.732;2023-08-17T00:40:24;17.70;99.90
33831;DHT22;20137;48.834;8.732;2023-08-17T00:42:50;17.60;99.90
33831;DHT22;20137;48.834;8.732;2023-08-17T00:45:16;17.60;99.90
33831;DHT22;20137;48.834;8.732;2023-08-17T00:47:42;17.50;99.90
33831;DHT22;20137;48.834;8.732;2023-08-17T00:50:08;17.50;99.90
33831;DHT22;20137;48.834;8.732;2023-08-17T00:52:34;17.50;99.90
33831;DHT22;20137;48.834;8.732;2023-08-17T00:55:00;17.50;99.90
33831;DHT22;20137;48.834;8.732;2023-08-17T00:57:29;17.40;99.90
33831;DHT22;20137;48.834;8.732;2023-08-17T00:59:55;17.40;99.90
33831;DHT22;20137;48.834;8.732;2023-08-17T01:02:21;17.40;99.90
33831;DHT22;20137;48.834;8.732;2023-08-17T01:04:46;17.40;99.90
33831;DHT22;20137;48.834;8.732;2023-08-17T01:07:12;17.40;99.90
33831;DHT22;20137;48.834;8.732;2023-08-17T01:09:38;17.40;99.90
33831;DHT22;20137;48.834;8.732;2023-08-17T01:12:48;17.40;99.90
33831;DHT22;20137;48.834;8.732;2023-08-17T01:15:15;17.40;99.90
33831;DHT22;20137;48.834;8.732;2023-08-17T01:17:58;17.30;99.90
33831;DHT22;20137;48.834;8.732;2023-08-17T01:20:26;17.30;99.90
33831;DHT22;20137;48.834;8.732;2023-08-17T01:22:52;17.30;99.90
33831;DHT22;20137;48.834;8.732;2023-08-17T01:25:22;17.30;99.90
33831;DHT22;20137;48.834;8.732;2023-08-17T01:27:48;17.30;99.90
33831;DHT22;20137;48.834;8.732;2023-08-17T01:30:16;17.20;99.90
33831;DHT22;20137;48.834;8.732;2023-08-17T01:33:01;17.20;99.90
33831;DHT22;20137;48.834;8.732;2023-08-17T01:35:37;17.20;99.90
33831;DHT22;20137;48.834;8.732;2023-08-17T01:38:07;17.10;99.90
33831;DHT22;20137;48.834;8.732;2023-08-17T01:40:35;17.20;99.90
33831;DHT22;20137;48.834;8.732;2023-08-17T01:43:04;17.10;99.90
33831;DHT22;20137;48.834;8.732;2023-08-17T01:45:33;17.10;99.90
33831;DHT22;20137;48.834;8.732;2023-08-17T01:47:59;17.10;99.90
33831;DHT22;20137;48.834;8.732;2023-08-17T01:50:25;17.10;99.90
33831;DHT22;20137;48.834;8.732;2023-08-17T01:52:51;17.10;99.90
33831;DHT22;20137;48.834;8.732;2023-08-17T01:55:16;17.10;99.90
33831;DHT22;20137;48.834;8.732;2023-08-17T02:15:50;17.10;99.90
33831;DHT22;20137;48.834;8.732;2023-08-17T02:18:15;17.20;99.90
33831;DHT22;20137;48.834;8.732;2023-08-17T02:20:41;17.30;99.90
33831;DHT22;20137;48.834;8.732;2023-08-17T02:23:06;17.40;99.90
33831;DHT22;20137;48.834;8.732;2023-08-17T02:25:32;17.50;99.90
33831;DHT22;20137;48.834;8.732;2023-08-17T02:28:04;17.60;99.90
33831;DHT22;20137;48.834;8.732;2023-08-17T02:30:30;17.70;99.90
33831;DHT22;20137;48.834;8.732;2023-08-17T02:32:55;17.90;99.90
33831;DHT22;20137;48.834;8.732;2023-08-17T02:35:22;18.00;99.90
33831;DHT22;20137;48.834;8.732;2023-08-17T02:37:48;18.00;99.90
33831;DHT22;20137;48.834;8.732;2023-08-17T02:40:13;18.10;99.90
33831;DHT22;20137;48.834;8.732;2023-08-17T02:42:39;18.20;99.90
33831;DHT22;20137;48.834;8.732;2023-08-17T02:45:06;18.20;99.90
33831;DHT22;20137;48.834;8.732;2023-08-17T02:47:32;18.20;99.90
33831;DHT22;20137;48.834;8.732;2023-08-17T02:49:58;18.30;99.90
33831;DHT22;20137;48.834;8.732;2023-08-17T02:52:23;18.30;99.90
33831;DHT22;20137;48.834;8.732;2023-08-17T02:54:49;18.30;99.90
33831;DHT22;20137;48.834;8.732;2023-08-17T02:57:15;18.30;99.90
33831;DHT22;20137;48.834;8.732;2023-08-17T02:59:40;18.30;99.90
33831;DHT22;20137;48.834;8.732;2023-08-17T03:02:06;18.30;99.90
33831;DHT22;20137;48.834;8.732;2023-08-17T03:04:32;18.30;99.90
33831;DHT22;20137;48.834;8.732;2023-08-17T03:06:58;18.30;99.90
33831;DHT22;20137;48.834;8.732;2023-08-17T03:09:23;18.30;99.90
33831;DHT22;20137;48.834;8.732;2023-08-17T03:11:49;18.30;99.90
33831;DHT22;20137;48.834;8.732;2023-08-17T03:14:15;18.30;99.90
33831;DHT22;20137;48.834;8.732;2023-08-17T03:16:40;18.30;99.90
33831;DHT22;20137;48.834;8.732;2023-08-17T03:19:06;18.30;99.90
33831;DHT22;20137;48.834;8.732;2023-08-17T03:21:34;18.30;99.90
33831;DHT22;20137;48.834;8.732;2023-08-17T03:23:59;18.30;99.90
33831;DHT22;20137;48.834;8.732;2023-08-17T03:26:25;18.20;99.90
33831;DHT22;20137;48.834;8.732;2023-08-17T03:28:50;18.20;99.90
33831;DHT22;20137;48.834;8.732;2023-08-17T03:31:16;18.20;99.90
33831;DHT22;20137;48.834;8.732;2023-08-17T03:33:42;18.20;99.90
33831;DHT22;20137;48.834;8.732;2023-08-17T03:36:07;18.20;99.90
33831;DHT22;20137;48.834;8.732;2023-08-17T03:38:33;18.20;99.90
33831;DHT22;20137;48.834;8.732;2023-08-17T03:40:59;18.20;99.90
33831;DHT22;20137;48.834;8.732;2023-08-17T03:43:24;18.10;99.90
33831;DHT22;20137;48.834;8.732;2023-08-17T03:45:52;18.10;99.90
33831;DHT22;20137;48.834;8.732;2023-08-17T03:48:18;18.10;99.90
33831;DHT22;20137;48.834;8.732;2023-08-17T03:50:43;18.10;99.90
33831;DHT22;20137;48.834;8.732;2023-08-17T03:53:09;18.10;99.90
33831;DHT22;20137;48.834;8.732;2023-08-17T03:55:34;18.00;99.90
33831;DHT22;20137;48.834;8.732;2023-08-17T03:58:00;18.00;99.90
33831;DHT22;20137;48.834;8.732;2023-08-17T04:00:26;18.00;99.90
33831;DHT22;20137;48.834;8.732;2023-08-17T04:02:51;18.00;99.90
33831;DHT22;20137;48.834;8.732;2023-08-17T04:05:17;17.90;99.90
33831;DHT22;20137;48.834;8.732;2023-08-17T04:07:43;17.90;99.90
33831;DHT22;20137;48.834;8.732;2023-08-17T04:10:08;17.80;99.90
33831;DHT22;20137;48.834;8.732;2023-08-17T04:12:34;17.80;99.90
33831;DHT22;20137;48.834;8.732;2023-08-17T04:15:00;17.70;99.90
33831;DHT22;20137;48.834;8.732;2023-08-17T04:17:26;17.70;99.90
33831;DHT22;20137;48.834;8.732;2023-08-17T04:19:51;17.60;99.90
33831;DHT22;20137;48.834;8.732;2023-08-17T04:22:17;17.60;99.90
33831;DHT22;20137;48.834;8.732;2023-08-17T04:24:43;17.60;99.90
33831;DHT22;20137;48.834;8.732;2023-08-17T04:27:08;17.60;99.90
33831;DHT22;20137;48.834;8.732;2023-08-17T04:29:34;17.50;99.90
33831;DHT22;20137;48.834;8.732;2023-08-17T04:32:00;17.50;99.90
33831;DHT22;20137;48.834;8.732;2023-08-17T04:34:25;17.50;99.90
33831;DHT22;20137;48.834;8.732;2023-08-17T04:36:51;17.50;99.90
33831;DHT22;20137;48.834;8.732;2023-08-17T04:39:17;17.50;99.90
33831;DHT22;20137;48.834;8.732;2023-08-17T04:41:43;17.50;99.90
33831;DHT22;20137;48.834;8.732;2023-08-17T04:44:08;17.50;99.90
33831;DHT22;20137;48.834;8.732;2023-08-17T04:46:35;17.50;99.90
33831;DHT22;20137;48.834;8.732;2023-08-17T04:49:00;17.50;99.90
33831;DHT22;20137;48.834;8.732;2023-08-17T04:51:26;17.50;99.90
33831;DHT22;20137;48.834;8.732;2023-08-17T04:53:52;17.50;99.90
33831;DHT22;20137;48.834;8.732;2023-08-17T04:56:18;17.50;99.90
33831;DHT22;20137;48.834;8.732;2023-08-17T04:58:44;17.60;99.90
33831;DHT22;20137;48.834;8.732;2023-08-17T05:01:09;17.60;99.90
33831;DHT22;20137;48.834;8.732;2023-08-17T05:03:35;17.60;99.90
33831;DHT22;20137;48.834;8.732;2023-08-17T05:06:01;17.70;99.90
33831;DHT22;20137;48.834;8.732;2023-08-17T05:08:27;17.70;99.90
33831;DHT22;20137;48.834;8.732;2023-08-17T05:10:52;17.80;99.90
33831;DHT22;20137;48.834;8.732;2023-08-17T05:13:19;17.80;99.90
33831;DHT22;20137;48.834;8.732;2023-08-17T05:15:45;17.90;99.90
33831;DHT22;20137;48.834;8.732;2023-08-17T05:18:10;17.90;99.90
33831;DHT22;20137;48.834;8.732;2023-08-17T05:20:36;18.00;99.90
33831;DHT22;20137;48.834;8.732;2023-08-17T05:23:02;18.00;99.90
33831;DHT22;20137;48.834;8.732;2023-08-17T05:25:28;18.10;99.90
33831;DHT22;20137;48.834;8.732;2023-08-17T05:27:56;18.20;99.90
33831;DHT22;20137;48.834;8.732;2023-08-17T05:30:22;18.20;99.90
33831;DHT22;20137;48.834;8.732;2023-08-17T05:32:47;18.30;99.90
33831;DHT22;20137;48.834;8.732;2023-08-17T05:35:13;18.50;99.90
33831;DHT22;20137;48.834;8.732;2023-08-17T05:37:39;18.60;99.90
33831;DHT22;20137;48.834;8.732;2023-08-17T05:40:05;18.80;99.90
33831;DHT22;20137;48.834;8.732;2023-08-17T05:42:31;18.90;99.90
33831;DHT22;20137;48.834;8.732;2023-08-17T05:44:57;19.10;99.90
33831;DHT22;20137;48.834;8.732;2023-08-17T05:47:22;19.50;99.90
33831;DHT22;20137;48.834;8.732;2023-08-17T05:49:48;19.90;99.90
33831;DHT22;20137;48.834;8.732;2023-08-17T05:52:13;20.20;99.90
33831;DHT22;20137;48.834;8.732;2023-08-17T05:54:39;20.50;99.90
33831;DHT22;20137;48.834;8.732;2023-08-17T05:57:05;20.70;99.90
33831;DHT22;20137;48.834;8.732;2023-08-17T05:59:31;20.70;99.90
33831;DHT22;20137;48.834;8.732;2023-08-17T06:01:56;20.60;99.90
33831;DHT22;20137;48.834;8.732;2023-08-17T06:04:22;20.50;99.90
33831;DHT22;20137;48.834;8.732;2023-08-17T06:06:48;20.60;99.90
33831;DHT22;20137;48.834;8.732;2023-08-17T06:09:17;20.90;99.90
33831;DHT22;20137;48.834;8.732;2023-08-17T06:11:42;21.20;99.90
33831;DHT22;20137;48.834;8.732;2023-08-17T06:14:08;21.50;99.90
33831;DHT22;20137;48.834;8.732;2023-08-17T06:16:34;21.70;99.90
33831;DHT22;20137;48.834;8.732;2023-08-17T06:19:00;21.90;99.90
33831;DHT22;20137;48.834;8.732;2023-08-17T06:21:26;22.10;99.90
33831;DHT22;20137;48.834;8.732;2023-08-17T06:23:52;22.30;99.90
33831;DHT22;20137;48.834;8.732;2023-08-17T06:26:17;22.50;99.90
33831;DHT22;20137;48.834;8.732;2023-08-17T06:28:43;22.50;99.90
33831;DHT22;20137;48.834;8.732;2023-08-17T06:31:09;22.50;99.90
33831;DHT22;20137;48.834;8.732;2023-08-17T06:33:35;22.60;99.90
33831;DHT22;20137;48.834;8.732;2023-08-17T06:36:01;22.70;99.90
33831;DHT22;20137;48.834;8.732;2023-08-17T06:38:26;22.80;99.90
33831;DHT22;20137;48.834;8.732;2023-08-17T06:40:52;22.80;99.90
33831;DHT22;20137;48.834;8.732;2023-08-17T06:43:18;22.80;99.90
33831;DHT22;20137;48.834;8.732;2023-08-17T06:45:44;22.80;99.90
33831;DHT22;20137;48.834;8.732;2023-08-17T06:48:12;22.50;99.90
33831;DHT22;20137;48.834;8.732;2023-08-17T06:50:38;22.20;99.90
33831;DHT22;20137;48.834;8.732;2023-08-17T06:53:05;21.80;99.90
33831;DHT22;20137;48.834;8.732;2023-08-17T06:55:30;21.80;99.90
33831;DHT22;20137;48.834;8.732;2023-08-17T06:57:57;21.90;99.90
33831;DHT22;20137;48.834;8.732;2023-08-17T07:00:22;21.70;99.90
33831;DHT22;20137;48.834;8.732;2023-08-17T07:02:49;21.50;99.90
33831;DHT22;20137;48.834;8.732;2023-08-17T07:05:16;21.50;99.90
33831;DHT22;20137;48.834;8.732;2023-08-17T07:07:42;21.50;99.90
33831;DHT22;20137;48.834;8.732;2023-08-17T07:10:09;21.70;99.90
33831;DHT22;20137;48.834;8.732;2023-08-17T07:12:38;21.80;99.90
33831;DHT22;20137;48.834;8.732;2023-08-17T07:15:05;21.90;99.90
33831;DHT22;20137;48.834;8.732;2023-08-17T07:17:31;22.00;99.90
33831;DHT22;20137;48.834;8.732;2023-08-17T07:19:56;22.20;99.90
33831;DHT22;20137;48.834;8.732;2023-08-17T07:22:22;22.30;99.90
33831;DHT22;20137;48.834;8.732;2023-08-17T07:24:48;22.50;99.90
33831;DHT22;20137;48.834;8.732;2023-08-17T07:27:13;22.70;99.90
33831;DHT22;20137;48.834;8.732;2023-08-17T07:29:39;22.90;99.90
33831;DHT22;20137;48.834;8.732;2023-08-17T07:32:05;23.00;99.90
33831;DHT22;20137;48.834;8.732;2023-08-17T07:34:30;23.20;99.90
33831;DHT22;20137;48.834;8.732;2023-08-17T07:36:57;23.40;99.90
33831;DHT22;20137;48.834;8.732;2023-08-17T07:39:23;23.50;99.90
33831;DHT22;20137;48.834;8.732;2023-08-17T07:41:49;23.30;99.90
33831;DHT22;20137;48.834;8.732;2023-08-17T07:44:14;23.20;99.90
33831;DHT22;20137;48.834;8.732;2023-08-17T07:46:40;23.00;99.90
33831;DHT22;20137;48.834;8.732;2023-08-17T07:49:06;22.60;99.90
33831;DHT22;20137;48.834;8.732;2023-08-17T07:51:32;22.20;99.90
33831;DHT22;20137;48.834;8.732;2023-08-17T07:54:00;22.00;99.90
33831;DHT22;20137;48.834;8.732;2023-08-17T07:56:25;22.20;99.90
33831;DHT22;20137;48.834;8.732;2023-08-17T07:58:53;22.20;99.90
33831;DHT22;20137;48.834;8.732;2023-08-17T08:01:18;22.20;99.90
33831;DHT22;20137;48.834;8.732;2023-08-17T08:03:44;22.30;99.90
33831;DHT22;20137;48.834;8.732;2023-08-17T08:06:10;22.30;99.90
33831;DHT22;20137;48.834;8.732;2023-08-17T08:08:35;22.20;99.90
33831;DHT22;20137;48.834;8.732;2023-08-17T08:11:01;22.20;99.90
33831;DHT22;20137;48.834;8.732;2023-08-17T08:13:30;22.50;99.90
33831;DHT22;20137;48.834;8.732;2023-08-17T08:15:56;22.80;99.90
33831;DHT22;20137;48.834;8.732;2023-08-17T08:18:21;23.00;99.90
33831;DHT22;20137;48.834;8.732;2023-08-17T08:20:48;23.20;99.90
33831;DHT22;20137;48.834;8.732;2023-08-17T08:23:14;23.60;99.90
33831;DHT22;20137;48.834;8.732;2023-08-17T08:25:40;23.80;99.90
33831;DHT22;20137;48.834;8.732;2023-08-17T08:28:05;23.90;99.90
33831;DHT22;20137;48.834;8.732;2023-08-17T08:30:33;24.10;99.90
33831;DHT22;20137;48.834;8.732;2023-08-17T08:32:59;24.20;99.90
33831;DHT22;20137;48.834;8.732;2023-08-17T08:35:25;24.30;99.90
33831;DHT22;20137;48.834;8.732;2023-08-17T08:37:51;24.50;99.90
33831;DHT22;20137;48.834;8.732;2023-08-17T08:40:17;24.60;99.90
33831;DHT22;20137;48.834;8.732;2023-08-17T08:42:43;24.70;99.90
33831;DHT22;20137;48.834;8.732;2023-08-17T08:45:10;24.70;99.90
33831;DHT22;20137;48.834;8.732;2023-08-17T08:47:40;24.70;99.90
33831;DHT22;20137;48.834;8.732;2023-08-17T08:50:07;24.70;99.90
33831;DHT22;20137;48.834;8.732;2023-08-17T08:52:34;24.60;99.90
33831;DHT22;20137;48.834;8.732;2023-08-17T08:55:18;24.70;99.90
33831;DHT22;20137;48.834;8.732;2023-08-17T08:57:46;24.70;99.90
33831;DHT22;20137;48.834;8.732;2023-08-17T09:00:12;24.90;99.90
33831;DHT22;20137;48.834;8.732;2023-08-17T09:02:38;25.10;99.90
33831;DHT22;20137;48.834;8.732;2023-08-17T09:05:06;25.20;99.90
33831;DHT22;20137;48.834;8.732;2023-08-17T09:07:34;25.30;99.90
33831;DHT22;20137;48.834;8.732;2023-08-17T09:10:02;25.30;99.90
33831;DHT22;20137;48.834;8.732;2023-08-17T09:12:29;25.50;99.90
33831;DHT22;20137;48.834;8.732;2023-08-17T09:14:55;25.50;99.90
33831;DHT22;20137;48.834;8.732;2023-08-17T09:17:25;25.40;99.90
33831;DHT22;20137;48.834;8.732;2023-08-17T09:22:36;25.30;99.90
33831;DHT22;20137;48.834;8.732;2023-08-17T09:25:04;25.20;99.90
33831;DHT22;20137;48.834;8.732;2023-08-17T09:27:31;25.20;99.90
33831;DHT22;20137;48.834;8.732;2023-08-17T09:30:10;25.10;99.90
33831;DHT22;20137;48.834;8.732;2023-08-17T09:32:36;24.90;99.90
33831;DHT22;20137;48.834;8.732;2023-08-17T09:35:03;25.00;99.90
33831;DHT22;20137;48.834;8.732;2023-08-17T09:37:30;25.10;99.90
33831;DHT22;20137;48.834;8.732;2023-08-17T09:39:55;25.20;99.90
33831;DHT22;20137;48.834;8.732;2023-08-17T09:42:21;25.30;99.90
33831;DHT22;20137;48.834;8.732;2023-08-17T09:44:49;25.20;99.90
33831;DHT22;20137;48.834;8.732;2023-08-17T09:47:16;25.30;99.90
33831;DHT22;20137;48.834;8.732;2023-08-17T09:49:52;25.30;99.90
33831;DHT22;20137;48.834;8.732;2023-08-17T09:52:21;25.00;99.90
33831;DHT22;20137;48.834;8.732;2023-08-17T09:57:16;25.00;99.90
33831;DHT22;20137;48.834;8.732;2023-08-17T09:59:42;25.10;99.90
33831;DHT22;20137;48.834;8.732;2023-08-17T10:04:40;25.00;99.90
33831;DHT22;20137;48.834;8.732;2023-08-17T10:07:07;25.00;99.90
33831;DHT22;20137;48.834;8.732;2023-08-17T10:09:39;25.10;99.90
33831;DHT22;20137;48.834;8.732;2023-08-17T10:12:10;25.10;99.90
33831;DHT22;20137;48.834;8.732;2023-08-17T10:14:40;25.20;99.90
33831;DHT22;20137;48.834;8.732;2023-08-17T10:17:12;25.50;99.90
33831;DHT22;20137;48.834;8.732;2023-08-17T10:19:47;25.60;99.90
33831;DHT22;20137;48.834;8.732;2023-08-17T10:25:05;26.40;99.90
33831;DHT22;20137;48.834;8.732;2023-08-17T10:27:32;26.70;99.90
33831;DHT22;20137;48.834;8.732;2023-08-17T10:29:59;26.90;99.90
33831;DHT22;20137;48.834;8.732;2023-08-17T10:32:25;27.20;99.90
33831;DHT22;20137;48.834;8.732;2023-08-17T10:34:53;26.60;99.90
33831;DHT22;20137;48.834;8.732;2023-08-17T10:37:20;27.10;99.90
33831;DHT22;20137;48.834;8.732;2023-08-17T10:39:47;27.20;99.90
33831;DHT22;20137;48.834;8.732;2023-08-17T10:42:13;27.20;99.90
33831;DHT22;20137;48.834;8.732;2023-08-17T10:44:47;26.50;99.90
33831;DHT22;20137;48.834;8.732;2023-08-17T10:47:23;26.60;99.90
33831;DHT22;20137;48.834;8.732;2023-08-17T10:50:03;26.50;99.90
33831;DHT22;20137;48.834;8.732;2023-08-17T10:52:30;26.40;99.90
33831;DHT22;20137;48.834;8.732;2023-08-17T10:54:59;26.50;99.90
33831;DHT22;20137;48.834;8.732;2023-08-17T11:02:37;26.60;99.90
33831;DHT22;20137;48.834;8.732;2023-08-17T11:05:03;26.80;99.90
33831;DHT22;20137;48.834;8.732;2023-08-17T11:07:50;27.00;99.90
33831;DHT22;20137;48.834;8.732;2023-08-17T11:12:45;26.50;99.90
33831;DHT22;20137;48.834;8.732;2023-08-17T11:15:10;26.60;99.90
33831;DHT22;20137;48.834;8.732;2023-08-17T11:17:36;26.60;99.90
33831;DHT22;20137;48.834;8.732;2023-08-17T11:20:03;26.40;99.90
33831;DHT22;20137;48.834;8.732;2023-08-17T11:22:29;26.50;99.90
33831;DHT22;20137;48.834;8.732;2023-08-17T11:24:55;26.40;99.90
33831;DHT22;20137;48.834;8.732;2023-08-17T11:27:21;26.10;99.90
33831;DHT22;20137;48.834;8.732;2023-08-17T11:29:47;25.80;99.90
33831;DHT22;20137;48.834;8.732;2023-08-17T11:32:16;25.70;99.90
33831;DHT22;20137;48.834;8.732;2023-08-17T11:34:42;25.60;99.90
33831;DHT22;20137;48.834;8.732;2023-08-17T11:37:11;25.30;99.90
33831;DHT22;20137;48.834;8.732;2023-08-17T11:39:37;25.10;99.90
33831;DHT22;20137;48.834;8.732;2023-08-17T11:42:03;24.60;99.90
33831;DHT22;20137;48.834;8.732;2023-08-17T11:44:29;24.20;99.90
33831;DHT22;20137;48.834;8.732;2023-08-17T11:46:54;23.80;99.90
33831;DHT22;20137;48.834;8.732;2023-08-17T11:49:20;23.60;99.90
33831;DHT22;20137;48.834;8.732;2023-08-17T11:51:47;23.40;99.90
33831;DHT22;20137;48.834;8.732;2023-08-17T11:54:13;23.20;99.90
33831;DHT22;20137;48.834;8.732;2023-08-17T11:56:39;23.00;99.90
33831;DHT22;20137;48.834;8.732;2023-08-17T11:59:09;22.70;99.90
33831;DHT22;20137;48.834;8.732;2023-08-17T12:01:39;22.70;99.90
33831;DHT22;20137;48.834;8.732;2023-08-17T12:04:06;22.50;99.90
33831;DHT22;20137;48.834;8.732;2023-08-17T12:06:32;22.40;99.90
33831;DHT22;20137;48.834;8.732;2023-08-17T12:08:58;22.20;99.90
33831;DHT22;20137;48.834;8.732;2023-08-17T12:11:24;22.10;99.90
33831;DHT22;20137;48.834;8.732;2023-08-17T12:13:51;22.00;99.90
33831;DHT22;20137;48.834;8.732;2023-08-17T12:16:17;21.90;99.90
33831;DHT22;20137;48.834;8.732;2023-08-17T12:18:53;21.80;99.90
33831;DHT22;20137;48.834;8.732;2023-08-17T12:21:22;21.70;99.90
33831;DHT22;20137;48.834;8.732;2023-08-17T12:23:48;21.60;99.90
33831;DHT22;20137;48.834;8.732;2023-08-17T12:26:21;21.50;99.90
33831;DHT22;20137;48.834;8.732;2023-08-17T12:28:47;21.30;99.90
33831;DHT22;20137;48.834;8.732;2023-08-17T12:31:13;21.20;99.90
33831;DHT22;20137;48.834;8.732;2023-08-17T12:33:38;21.10;99.90
33831;DHT22;20137;48.834;8.732;2023-08-17T12:36:04;21.00;99.90
33831;DHT22;20137;48.834;8.732;2023-08-17T12:38:32;21.00;99.90
33831;DHT22;20137;48.834;8.732;2023-08-17T12:40:57;20.90;99.90
33831;DHT22;20137;48.834;8.732;2023-08-17T12:43:23;21.00;99.90
33831;DHT22;20137;48.834;8.732;2023-08-17T12:45:49;21.00;99.90
33831;DHT22;20137;48.834;8.732;2023-08-17T12:48:14;21.10;99.90
33831;DHT22;20137;48.834;8.732;2023-08-17T12:50:40;21.20;99.90
33831;DHT22;20137;48.834;8.732;2023-08-17T12:53:06;21.50;99.90
33831;DHT22;20137;48.834;8.732;2023-08-17T12:55:31;21.60;99.90
33831;DHT22;20137;48.834;8.732;2023-08-17T12:57:57;21.70;99.90
33831;DHT22;20137;48.834;8.732;2023-08-17T13:00:23;21.90;99.90
33831;DHT22;20137;48.834;8.732;2023-08-17T13:02:49;22.10;99.90
33831;DHT22;20137;48.834;8.732;2023-08-17T13:05:16;22.30;99.90
33831;DHT22;20137;48.834;8.732;2023-08-17T13:07:42;22.40;99.90
33831;DHT22;20137;48.834;8.732;2023-08-17T13:10:08;22.70;99.90
33831;DHT22;20137;48.834;8.732;2023-08-17T13:12:33;22.70;99.90
33831;DHT22;20137;48.834;8.732;2023-08-17T13:14:59;22.90;99.90
33831;DHT22;20137;48.834;8.732;2023-08-17T13:17:25;22.80;99.90
33831;DHT22;20137;48.834;8.732;2023-08-17T13:19:50;22.70;99.90
33831;DHT22;20137;48.834;8.732;2023-08-17T13:22:16;22.70;99.90
33831;DHT22;20137;48.834;8.732;2023-08-17T13:24:42;22.60;99.90
33831;DHT22;20137;48.834;8.732;2023-08-17T13:27:07;22.60;99.90
33831;DHT22;20137;48.834;8.732;2023-08-17T13:29:33;22.50;99.90
33831;DHT22;20137;48.834;8.732;2023-08-17T13:32:00;22.50;99.90
33831;DHT22;20137;48.834;8.732;2023-08-17T13:34:26;22.60;99.90
33831;DHT22;20137;48.834;8.732;2023-08-17T13:36:52;22.80;99.90
33831;DHT22;20137;48.834;8.732;2023-08-17T13:39:18;22.80;99.90
33831;DHT22;20137;48.834;8.732;2023-08-17T13:41:43;22.90;99.90
33831;DHT22;20137;48.834;8.732;2023-08-17T13:44:09;23.00;99.90
33831;DHT22;20137;48.834;8.732;2023-08-17T13:46:35;23.20;99.90
33831;DHT22;20137;48.834;8.732;2023-08-17T13:49:00;23.20;99.90
33831;DHT22;20137;48.834;8.732;2023-08-17T13:51:26;23.50;99.90
33831;DHT22;20137;48.834;8.732;2023-08-17T13:53:52;23.70;99.90
33831;DHT22;20137;48.834;8.732;2023-08-17T13:56:18;23.90;99.90
33831;DHT22;20137;48.834;8.732;2023-08-17T13:58:43;23.90;99.90
33831;DHT22;20137;48.834;8.732;2023-08-17T14:01:09;24.00;99.90
33831;DHT22;20137;48.834;8.732;2023-08-17T14:03:37;24.10;99.90
33831;DHT22;20137;48.834;8.732;2023-08-17T14:06:02;24.10;99.90
33831;DHT22;20137;48.834;8.732;2023-08-17T14:08:28;24.20;99.90
33831;DHT22;20137;48.834;8.732;2023-08-17T14:10:54;24.30;99.90
33831;DHT22;20137;48.834;8.732;2023-08-17T14:13:19;24.50;99.90
33831;DHT22;20137;48.834;8.732;2023-08-17T14:15:45;24.60;99.90
33831;DHT22;20137;48.834;8.732;2023-08-17T14:18:11;24.90;99.90
33831;DHT22;20137;48.834;8.732;2023-08-17T14:20:36;25.10;99.90
33831;DHT22;20137;48.834;8.732;2023-08-17T14:23:02;25.40;99.90
33831;DHT22;20137;48.834;8.732;2023-08-17T14:25:28;25.80;99.90
33831;DHT22;20137;48.834;8.732;2023-08-17T14:27:54;26.10;99.90
33831;DHT22;20137;48.834;8.732;2023-08-17T14:30:19;26.00;99.90
33831;DHT22;20137;48.834;8.732;2023-08-17T14:32:45;26.20;99.90
33831;DHT22;20137;48.834;8.732;2023-08-17T14:35:11;26.60;99.90
33831;DHT22;20137;48.834;8.732;2023-08-17T14:37:37;26.70;99.90
33831;DHT22;20137;48.834;8.732;2023-08-17T14:40:02;27.00;99.90
33831;DHT22;20137;48.834;8.732;2023-08-17T14:42:28;27.30;99.90
33831;DHT22;20137;48.834;8.732;2023-08-17T14:44:54;27.60;99.90
33831;DHT22;20137;48.834;8.732;2023-08-17T14:47:20;27.70;99.90
33831;DHT22;20137;48.834;8.732;2023-08-17T14:49:46;28.00;99.90
33831;DHT22;20137;48.834;8.732;2023-08-17T14:52:12;28.20;99.90
33831;DHT22;20137;48.834;8.732;2023-08-17T14:54:38;28.30;99.90
33831;DHT22;20137;48.834;8.732;2023-08-17T14:57:03;28.60;99.90
33831;DHT22;20137;48.834;8.732;2023-08-17T14:59:29;28.80;99.90
33831;DHT22;20137;48.834;8.732;2023-08-17T15:01:55;28.80;99.90
33831;DHT22;20137;48.834;8.732;2023-08-17T15:04:22;28.90;99.90
33831;DHT22;20137;48.834;8.732;2023-08-17T15:06:48;28.70;99.90
33831;DHT22;20137;48.834;8.732;2023-08-17T15:09:14;28.60;99.90
33831;DHT22;20137;48.834;8.732;2023-08-17T15:11:40;28.50;99.90
33831;DHT22;20137;48.834;8.732;2023-08-17T15:14:05;28.40;99.90
33831;DHT22;20137;48.834;8.732;2023-08-17T15:16:31;28.40;99.90
33831;DHT22;20137;48.834;8.732;2023-08-17T15:18:57;28.10;99.90
33831;DHT22;20137;48.834;8.732;2023-08-17T15:21:23;27.70;99.90
33831;DHT22;20137;48.834;8.732;2023-08-17T15:23:48;27.80;99.90
33831;DHT22;20137;48.834;8.732;2023-08-17T15:26:14;27.90;99.90
33831;DHT22;20137;48.834;8.732;2023-08-17T15:28:41;28.00;99.90
33831;DHT22;20137;48.834;8.732;2023-08-17T15:31:07;28.10;99.90
33831;DHT22;20137;48.834;8.732;2023-08-17T15:33:44;28.00;99.90
33831;DHT22;20137;48.834;8.732;2023-08-17T15:36:10;28.00;99.90
33831;DHT22;20137;48.834;8.732;2023-08-17T15:38:35;28.00;99.90
33831;DHT22;20137;48.834;8.732;2023-08-17T15:41:01;28.10;99.90
33831;DHT22;20137;48.834;8.732;2023-08-17T15:43:29;28.10;99.90
33831;DHT22;20137;48.834;8.732;2023-08-17T15:45:54;28.10;99.90
33831;DHT22;20137;48.834;8.732;2023-08-17T15:48:20;28.10;99.90
33831;DHT22;20137;48.834;8.732;2023-08-17T15:50:46;28.10;99.90
33831;DHT22;20137;48.834;8.732;2023-08-17T15:53:12;28.00;99.90
33831;DHT22;20137;48.834;8.732;2023-08-17T15:55:38;27.90;99.90
33831;DHT22;20137;48.834;8.732;2023-08-17T15:58:03;27.80;99.90
33831;DHT22;20137;48.834;8.732;2023-08-17T16:00:29;27.70;99.90
33831;DHT22;20137;48.834;8.732;2023-08-17T16:02:55;27.70;99.90
33831;DHT22;20137;48.834;8.732;2023-08-17T16:05:24;27.70;99.90